createdAt,value
2019-02-15T00:01:00.367Z,95807.91
2019-02-15T00:03:26.708Z,95807.12
2019-02-15T00:05:53.049Z,95807.91
2019-02-15T00:08:19.425Z,95815.45
2019-02-15T00:10:45.774Z,95810.66
2019-02-15T00:13:13.773Z,95816.73
2019-02-15T00:15:38.566Z,95815.91
2019-02-15T00:18:04.900Z,95818.09
2019-02-15T00:20:31.306Z,95813.20
2019-02-15T00:22:57.640Z,95817.27
2019-02-15T00:25:23.967Z,95809.28
2019-02-15T00:27:50.324Z,95810.84
2019-02-15T00:30:16.646Z,95804.77
2019-02-15T00:32:42.988Z,95805.98
2019-02-15T00:35:09.316Z,95795.78
2019-02-15T00:37:35.652Z,95799.00
2019-02-15T00:40:02.019Z,95796.16
2019-02-15T00:42:28.358Z,95797.62
2019-02-15T00:44:54.690Z,95801.30
2019-02-15T00:47:21.028Z,95807.34
2019-02-15T00:49:47.371Z,95804.39
2019-02-15T00:52:13.718Z,95804.22
2019-02-15T00:54:40.059Z,95798.15
2019-02-15T00:57:06.388Z,95793.95
2019-02-15T00:59:32.759Z,95792.66
2019-02-15T01:01:59.109Z,95795.69
2019-02-15T01:04:25.444Z,95801.34
2019-02-15T01:06:51.909Z,95794.85
2019-02-15T01:09:18.291Z,95791.73
2019-02-15T01:11:44.632Z,95788.23
2019-02-15T01:14:11.093Z,95789.44
2019-02-15T01:16:37.445Z,95789.52
2019-02-15T01:19:03.766Z,95793.02
2019-02-15T01:21:30.139Z,95793.21
2019-02-15T01:23:56.461Z,95789.92
2019-02-15T01:26:22.799Z,95791.38
2019-02-15T01:28:49.122Z,95796.69
2019-02-15T01:31:15.483Z,95801.84
2019-02-15T01:33:41.939Z,95802.69
2019-02-15T01:36:08.271Z,95799.86
2019-02-15T01:38:34.644Z,95793.89
2019-02-15T01:41:00.982Z,95797.56
2019-02-15T01:43:27.364Z,95798.69
2019-02-15T01:45:53.830Z,95795.00
2019-02-15T01:48:20.162Z,95801.80
2019-02-15T01:50:46.441Z,95790.13
2019-02-15T01:53:12.785Z,95792.14
2019-02-15T01:55:39.154Z,95790.33
2019-02-15T01:58:05.544Z,95794.45
2019-02-15T02:00:31.875Z,95793.91
2019-02-15T02:02:58.194Z,95794.08
2019-02-15T02:05:24.533Z,95783.00
2019-02-15T02:07:50.864Z,95787.77
2019-02-15T02:10:17.207Z,95779.22
2019-02-15T02:12:43.548Z,95786.49
2019-02-15T02:15:09.888Z,95778.22
2019-02-15T02:17:36.217Z,95778.67
2019-02-15T02:20:02.588Z,95778.49
2019-02-15T02:22:28.984Z,95770.15
2019-02-15T02:24:55.370Z,95767.84
2019-02-15T02:27:21.714Z,95774.92
2019-02-15T02:29:48.051Z,95773.45
2019-02-15T02:32:14.387Z,95768.61
2019-02-15T02:34:40.709Z,95767.03
2019-02-15T02:37:07.046Z,95772.45
2019-02-15T02:39:33.392Z,95766.84
2019-02-15T02:42:00.709Z,95772.75
2019-02-15T02:44:26.095Z,95770.44
2019-02-15T02:46:52.442Z,95770.15
2019-02-15T02:49:18.787Z,95768.14
2019-02-15T02:51:45.107Z,95767.69
2019-02-15T02:54:11.486Z,95766.78
2019-02-15T02:56:37.866Z,95773.20
2019-02-15T02:59:04.196Z,95770.98
2019-02-15T03:01:30.544Z,95772.08
2019-02-15T03:03:57.007Z,95776.88
2019-02-15T03:06:23.340Z,95781.75
2019-02-15T03:08:49.728Z,95782.59
2019-02-15T03:11:16.174Z,95784.52
2019-02-15T03:13:42.526Z,95785.80
2019-02-15T03:16:08.936Z,95783.50
2019-02-15T03:18:35.287Z,95786.07
2019-02-15T03:21:01.654Z,95787.73
2019-02-15T03:23:27.972Z,95782.66
2019-02-15T03:25:54.358Z,95782.02
2019-02-15T03:28:20.700Z,95779.11
2019-02-15T03:30:47.021Z,95777.34
2019-02-15T03:33:13.349Z,95776.34
2019-02-15T03:35:39.691Z,95777.63
2019-02-15T03:38:06.067Z,95782.29
2019-02-15T03:40:32.385Z,95781.84
2019-02-15T03:42:58.852Z,95775.52
2019-02-15T03:45:25.091Z,95773.94
2019-02-15T03:47:51.409Z,95778.27
2019-02-15T03:50:17.809Z,95786.98
2019-02-15T03:52:44.186Z,95789.44
2019-02-15T03:55:10.516Z,95793.78
2019-02-15T03:57:36.843Z,95791.29
2019-02-15T04:00:03.187Z,95788.52
2019-02-15T04:02:29.540Z,95788.98
2019-02-15T04:04:55.916Z,95792.72
2019-02-15T04:07:22.270Z,95795.94
2019-02-15T04:09:48.610Z,95791.88
2019-02-15T04:12:14.950Z,95798.61
2019-02-15T04:14:41.338Z,95795.20
2019-02-15T04:17:07.667Z,95803.84
2019-02-15T04:19:34.009Z,95801.53
2019-02-15T04:22:00.346Z,95799.52
2019-02-15T04:24:26.702Z,95813.17
2019-02-15T04:26:53.070Z,95809.61
2019-02-15T04:29:19.404Z,95815.84
2019-02-15T04:31:45.786Z,95817.16
2019-02-15T04:34:12.166Z,95815.93
2019-02-15T04:36:38.492Z,95819.34
2019-02-15T04:39:04.824Z,95824.11
2019-02-15T04:41:31.157Z,95823.55
2019-02-15T04:43:57.516Z,95824.83
2019-02-15T04:46:23.922Z,95831.19
2019-02-15T04:48:50.250Z,95830.73
2019-02-15T04:51:16.572Z,95829.70
2019-02-15T04:53:42.919Z,95836.72
2019-02-15T04:56:09.251Z,95829.70
2019-02-15T04:58:35.625Z,95845.34
2019-02-15T05:01:01.996Z,95844.12
2019-02-15T05:03:28.386Z,95846.31
2019-02-15T05:05:54.720Z,95843.66
2019-02-15T05:08:21.052Z,95848.89
2019-02-15T05:10:47.430Z,95850.92
2019-02-15T05:13:13.719Z,95849.78
2019-02-15T05:15:40.066Z,95858.34
2019-02-15T05:18:06.397Z,95867.81
2019-02-15T05:20:32.763Z,95872.52
2019-02-15T05:22:59.090Z,95874.44
2019-02-15T05:25:25.422Z,95870.83
2019-02-15T05:27:51.794Z,95878.11
2019-02-15T05:30:18.228Z,95873.06
2019-02-15T05:32:44.564Z,95869.84
2019-02-15T05:35:10.965Z,95884.27
2019-02-15T05:37:37.309Z,95883.44
2019-02-15T05:40:03.688Z,95888.77
2019-02-15T05:42:30.109Z,95891.23
2019-02-15T05:45:03.249Z,95896.19
2019-02-15T05:47:22.822Z,95903.58
2019-02-15T05:49:49.205Z,95906.30
2019-02-15T05:52:15.542Z,95907.23
2019-02-15T05:54:41.892Z,95914.78
2019-02-15T05:57:09.654Z,95921.56
2019-02-15T05:59:34.600Z,95924.32
2019-02-15T06:02:00.957Z,95924.52
2019-02-15T06:04:27.314Z,95925.43
2019-02-15T06:06:53.700Z,95931.22
2019-02-15T06:09:20.035Z,95930.83
2019-02-15T06:11:46.377Z,95925.22
2019-02-15T06:14:12.710Z,95917.09
2019-02-15T06:16:39.138Z,95914.19
2019-02-15T06:19:05.473Z,95918.69
2019-02-15T06:21:34.041Z,95922.83
2019-02-15T06:24:00.385Z,95927.14
2019-02-15T06:26:26.717Z,95938.29
2019-02-15T06:28:53.104Z,95937.38
2019-02-15T06:31:19.434Z,95946.94
2019-02-15T06:33:45.888Z,95947.78
2019-02-15T06:36:12.326Z,95949.88
2019-02-15T06:38:38.667Z,95956.95
2019-02-15T06:41:05.011Z,95956.58
2019-02-15T06:43:31.394Z,95962.37
2019-02-15T06:45:57.863Z,95969.55
2019-02-15T06:48:24.215Z,95975.63
2019-02-15T06:50:50.620Z,95977.81
2019-02-15T06:53:17.062Z,95968.94
2019-02-15T06:55:43.438Z,95970.31
2019-02-15T06:58:09.820Z,95964.44
2019-02-15T07:00:36.162Z,95962.12
2019-02-15T07:03:02.541Z,95961.63
2019-02-15T07:05:28.882Z,95971.97
2019-02-15T07:07:55.270Z,95971.38
2019-02-15T07:10:21.602Z,95971.63
2019-02-15T07:12:47.932Z,95976.33
2019-02-15T07:15:14.255Z,95974.01
2019-02-15T07:17:40.742Z,95978.48
2019-02-15T07:20:07.125Z,95971.94
2019-02-15T07:22:33.513Z,95967.13
2019-02-15T07:24:59.851Z,95979.19
2019-02-15T07:27:26.217Z,95980.36
2019-02-15T07:29:52.554Z,95984.52
2019-02-15T07:32:19.049Z,95983.36
2019-02-15T07:34:45.450Z,95975.48
2019-02-15T07:37:11.788Z,95973.17
2019-02-15T07:39:38.111Z,95977.74
2019-02-15T07:42:04.442Z,95975.29
2019-02-15T07:44:31.394Z,95974.28
2019-02-15T07:46:57.779Z,95969.38
2019-02-15T07:49:26.991Z,95962.88
2019-02-15T07:51:50.540Z,95964.84
2019-02-15T07:54:16.896Z,95964.75
2019-02-15T07:56:43.254Z,95965.38
2019-02-15T07:59:09.588Z,95970.33
2019-02-15T08:01:35.966Z,95967.05
2019-02-15T08:04:02.347Z,95964.84
2019-02-15T08:06:28.689Z,95958.30
2019-02-15T08:08:55.265Z,95960.59
2019-02-15T08:11:21.690Z,95975.49
2019-02-15T08:13:48.070Z,95976.25
2019-02-15T08:16:14.413Z,95973.20
2019-02-15T08:18:40.796Z,95980.28
2019-02-15T08:21:07.133Z,95984.58
2019-02-15T08:23:33.537Z,95987.28
2019-02-15T08:25:59.870Z,95984.69
2019-02-15T08:28:26.240Z,95982.57
2019-02-15T08:30:52.577Z,95987.73
2019-02-15T08:33:18.909Z,95997.84
2019-02-15T08:35:45.275Z,95997.81
2019-02-15T08:38:11.730Z,95998.40
2019-02-15T08:40:38.058Z,96000.32
2019-02-15T08:43:04.436Z,96002.09
2019-02-15T08:45:30.790Z,96009.22
2019-02-15T08:47:57.176Z,96006.42
2019-02-15T08:50:23.550Z,96007.20
2019-02-15T08:52:49.950Z,96003.49
2019-02-15T08:55:16.305Z,96005.31
2019-02-15T08:57:42.610Z,96007.46
2019-02-15T09:00:08.975Z,96018.57
2019-02-15T09:02:35.385Z,96020.22
2019-02-15T09:05:02.173Z,96016.43
2019-02-15T09:07:28.103Z,96013.30
2019-02-15T09:09:54.533Z,96010.57
2019-02-15T09:12:20.832Z,96012.45
2019-02-15T09:14:47.171Z,96015.56
2019-02-15T09:17:13.520Z,96012.78
2019-02-15T09:19:39.947Z,96019.66
2019-02-15T09:22:06.328Z,96022.59
2019-02-15T09:24:32.690Z,96019.70
2019-02-15T09:26:59.174Z,96021.67
2019-02-15T09:29:25.511Z,96026.11
2019-02-15T09:31:51.868Z,96025.28
2019-02-15T09:34:18.216Z,96019.16
2019-02-15T09:36:44.614Z,96017.47
2019-02-15T09:39:10.945Z,96027.06
2019-02-15T09:41:37.320Z,96025.28
2019-02-15T09:44:03.665Z,96032.63
2019-02-15T09:46:29.997Z,96033.12
2019-02-15T09:48:56.431Z,96033.91
2019-02-15T09:51:22.762Z,96033.76
2019-02-15T09:53:49.088Z,96033.77
2019-02-15T09:56:15.426Z,96027.98
2019-02-15T09:58:41.751Z,96028.45
2019-02-15T10:01:08.138Z,96032.28
2019-02-15T10:03:34.428Z,96025.55
2019-02-15T10:06:00.853Z,96025.92
2019-02-15T10:08:27.280Z,96027.37
2019-02-15T10:10:53.624Z,96018.36
2019-02-15T10:13:19.969Z,96024.58
2019-02-15T10:15:46.358Z,96025.36
2019-02-15T10:18:13.787Z,96022.43
2019-02-15T10:20:40.163Z,96022.59
2019-02-15T10:23:06.495Z,96025.94
2019-02-15T10:25:32.844Z,96030.14
2019-02-15T10:27:59.258Z,96027.23
2019-02-15T10:30:25.644Z,96025.73
2019-02-15T10:32:51.974Z,96026.88
2019-02-15T10:35:18.334Z,96034.05
2019-02-15T10:37:44.691Z,96034.12
2019-02-15T10:40:11.089Z,96037.93
2019-02-15T10:42:37.451Z,96037.42
2019-02-15T10:45:03.792Z,96041.72
2019-02-15T10:47:30.188Z,96044.19
2019-02-15T10:49:56.523Z,96040.52
2019-02-15T10:52:22.973Z,96039.80
2019-02-15T10:54:49.326Z,96048.63
2019-02-15T10:57:15.918Z,96051.43
2019-02-15T10:59:42.253Z,96053.44
2019-02-15T11:02:08.580Z,96044.83
2019-02-15T11:04:34.984Z,96048.34
2019-02-15T11:07:01.360Z,96050.27
2019-02-15T11:09:27.750Z,96047.05
2019-02-15T11:11:54.103Z,96056.27
2019-02-15T11:14:20.494Z,96053.41
